Time;durP1;ratioP1;P1;durP2;ratioP2;P2;SDS_P1;SDS_P2;PMS_P1;PMS_P2;Temp;Humidity;BMP_temperature;BMP_pressure;BME280_temperature;BME280_humidity;BME280_pressure;Samples;Min_cycle;Max_cycle;Signal;HPM_P1;HPM_P2
2022/06/17 00:01:24;;;;;;;23.63;11.77;;;;;;;;;;5092070;28;20063;-72
2022/06/17 00:04:29;;;;;;;27.55;12.82;;;;;;;;;;5080741;28;20043;-71
2022/06/17 00:07:34;;;;;;;23.45;12.15;;;;;;;;;;5092528;28;20043;-71
2022/06/17 00:10:38;;;;;;;35.85;12.65;;;;;;;;;;5093255;28;20054;-71
2022/06/17 00:13:42;;;;;;;26.48;12.52;;;;;;;;;;5093103;28;20043;-71
2022/06/17 00:16:47;;;;;;;22.35;13.07;;;;;;;;;;5092296;28;20039;-71
2022/06/17 00:19:51;;;;;;;27.33;12.23;;;;;;;;;;5092960;28;20051;-71
2022/06/17 00:22:56;;;;;;;24.52;12.85;;;;;;;;;;5092881;28;20035;-71
2022/06/17 00:26:00;;;;;;;35.95;13.88;;;;;;;;;;5093015;28;20051;-71
2022/06/17 00:29:04;;;;;;;24.30;14.45;;;;;;;;;;5079978;28;20043;-71
2022/06/17 00:32:09;;;;;;;31.55;13.15;;;;;;;;;;5092510;28;20051;-71
2022/06/17 00:35:13;;;;;;;23.23;12.95;;;;;;;;;;5092209;28;20048;-71
2022/06/17 00:38:22;;;;;;;17.88;12.60;;;;;;;;;;5092788;28;20047;-71
2022/06/17 00:41:27;;;;;;;22.08;12.95;;;;;;;;;;5091842;28;20055;-71
2022/06/17 00:45:10;;;;;;;22.88;12.55;;;;;;;;;;5092648;28;20043;-71
2022/06/17 00:48:20;;;;;;;31.05;13.52;;;;;;;;;;5078450;28;20143;-71
2022/06/17 00:51:25;;;;;;;19.08;12.75;;;;;;;;;;5078228;28;20042;-72
2022/06/17 00:54:50;;;;;;;24.27;14.32;;;;;;;;;;5092273;28;20059;-71
2022/06/17 00:57:54;;;;;;;22.02;13.10;;;;;;;;;;5091547;28;20046;-71
2022/06/17 01:01:00;;;;;;;23.15;12.25;;;;;;;;;;5090913;28;20055;-71
2022/06/17 01:04:05;;;;;;;21.80;12.50;;;;;;;;;;5091351;28;20514;-71
2022/06/17 01:07:09;;;;;;;22.65;14.10;;;;;;;;;;5068021;28;20138;-71
2022/06/17 01:10:15;;;;;;;20.10;13.02;;;;;;;;;;5091310;28;20039;-71
2022/06/17 01:13:19;;;;;;;18.85;12.27;;;;;;;;;;5091152;28;20055;-71
2022/06/17 01:16:26;;;;;;;28.08;12.75;;;;;;;;;;5090870;28;20051;-71
2022/06/17 01:19:37;;;;;;;18.98;12.15;;;;;;;;;;5090829;28;20066;-71
2022/06/17 01:23:13;;;;;;;24.48;12.38;;;;;;;;;;5091697;28;20062;-71
2022/06/17 01:26:17;;;;;;;31.27;14.57;;;;;;;;;;5090825;28;20043;-71
2022/06/17 01:29:22;;;;;;;23.58;13.00;;;;;;;;;;5091078;28;20388;-71
2022/06/17 01:32:30;;;;;;;28.95;13.30;;;;;;;;;;5090562;28;20063;-71
2022/06/17 01:35:37;;;;;;;23.92;12.50;;;;;;;;;;5091924;28;20035;-71
2022/06/17 01:38:43;;;;;;;23.02;13.25;;;;;;;;;;5067525;28;20391;-71
2022/06/17 01:41:49;;;;;;;25.65;13.13;;;;;;;;;;5078535;28;20039;-71
2022/06/17 01:44:54;;;;;;;29.92;14.45;;;;;;;;;;5090768;28;20392;-71
2022/06/17 01:48:00;;;;;;;20.77;12.93;;;;;;;;;;5090759;28;20079;-71
2022/06/17 01:51:08;;;;;;;19.13;12.80;;;;;;;;;;5090389;28;20046;-71
2022/06/17 01:54:16;;;;;;;22.65;12.60;;;;;;;;;;5090544;28;20216;-71
2022/06/17 01:57:23;;;;;;;21.60;12.32;;;;;;;;;;5091384;28;20055;-71
2022/06/17 02:00:29;;;;;;;23.40;12.98;;;;;;;;;;5090165;28;20059;-71
2022/06/17 02:03:37;;;;;;;22.45;13.10;;;;;;;;;;5090316;28;20044;-71
2022/06/17 02:06:46;;;;;;;21.33;12.38;;;;;;;;;;5090461;28;20498;-72
2022/06/17 02:09:50;;;;;;;23.27;12.80;;;;;;;;;;5078624;28;20502;-71
2022/06/17 02:12:56;;;;;;;23.23;13.25;;;;;;;;;;5078549;28;20055;-71
2022/06/17 02:16:03;;;;;;;24.23;13.88;;;;;;;;;;5090205;28;20581;-71
2022/06/17 02:19:19;;;;;;;20.80;13.02;;;;;;;;;;5078578;28;20395;-71
2022/06/17 02:22:25;;;;;;;25.40;13.20;;;;;;;;;;5067120;28;20046;-71
2022/06/17 02:25:38;;;;;;;22.95;13.73;;;;;;;;;;5090246;28;20074;-71
2022/06/17 02:28:44;;;;;;;19.23;12.65;;;;;;;;;;5090225;28;20045;-71
2022/06/17 02:31:49;;;;;;;19.45;13.05;;;;;;;;;;5090121;28;20039;-71
2022/06/17 02:35:09;;;;;;;30.08;14.98;;;;;;;;;;5078547;28;20506;-71
2022/06/17 02:38:16;;;;;;;24.42;13.32;;;;;;;;;;5078334;28;20043;-71
2022/06/17 02:41:21;;;;;;;19.98;12.98;;;;;;;;;;5090100;28;20051;-71
2022/06/17 02:44:36;;;;;;;28.23;12.88;;;;;;;;;;5089973;28;20063;-71
2022/06/17 02:47:41;;;;;;;23.10;12.50;;;;;;;;;;5078368;28;20050;-71
2022/06/17 02:50:46;;;;;;;21.75;11.85;;;;;;;;;;5089861;28;20039;-71
2022/06/17 02:53:50;;;;;;;24.88;12.82;;;;;;;;;;5082123;28;20126;-71
2022/06/17 02:56:56;;;;;;;30.73;12.48;;;;;;;;;;5093907;28;20051;-71
2022/06/17 03:00:04;;;;;;;17.52;12.02;;;;;;;;;;5094272;28;20051;-71
2022/06/17 03:03:11;;;;;;;25.08;12.57;;;;;;;;;;5093731;28;20399;-71
2022/06/17 03:06:18;;;;;;;19.75;11.93;;;;;;;;;;5093556;28;20051;-71
2022/06/17 03:09:24;;;;;;;24.45;11.13;;;;;;;;;;5081838;28;20114;-71
2022/06/17 03:12:29;;;;;;;18.15;10.88;;;;;;;;;;5093263;28;20423;-71
2022/06/17 03:15:34;;;;;;;21.48;11.93;;;;;;;;;;5093511;28;20043;-71
2022/06/17 03:18:39;;;;;;;18.85;11.13;;;;;;;;;;5081974;28;20164;-71
2022/06/17 03:21:44;;;;;;;17.42;10.60;;;;;;;;;;5093666;28;20043;-71
2022/06/17 03:24:49;;;;;;;19.30;11.20;;;;;;;;;;5094244;28;20062;-71
2022/06/17 03:27:56;;;;;;;23.40;10.82;;;;;;;;;;5081736;28;20071;-71
2022/06/17 03:31:13;;;;;;;17.70;10.70;;;;;;;;;;5092868;28;20419;-71
2022/06/17 03:34:20;;;;;;;20.70;10.27;;;;;;;;;;5093255;28;20408;-71
2022/06/17 03:37:28;;;;;;;19.40;10.80;;;;;;;;;;5081223;28;20043;-71
2022/06/17 03:40:43;;;;;;;19.95;10.70;;;;;;;;;;5092595;28;20055;-71
2022/06/17 03:43:58;;;;;;;22.98;10.18;;;;;;;;;;5093072;28;20047;-71
2022/06/17 03:47:09;;;;;;;14.75;10.82;;;;;;;;;;5092922;28;20044;-71
2022/06/17 03:50:20;;;;;;;17.52;10.52;;;;;;;;;;5070107;28;20051;-71
2022/06/17 03:53:24;;;;;;;18.77;10.02;;;;;;;;;;5080672;28;20055;-71
2022/06/17 03:56:30;;;;;;;13.88;10.35;;;;;;;;;;5081278;28;20043;-71
2022/06/17 03:59:36;;;;;;;19.90;10.57;;;;;;;;;;5092412;28;20047;-71
2022/06/17 04:02:40;;;;;;;18.33;10.13;;;;;;;;;;5080627;28;20050;-71
2022/06/17 04:05:47;;;;;;;17.83;10.65;;;;;;;;;;5092626;28;20046;-71
2022/06/17 04:08:58;;;;;;;17.02;10.85;;;;;;;;;;5092329;28;20063;-71
2022/06/17 04:12:04;;;;;;;22.00;10.30;;;;;;;;;;5092131;28;20043;-71
2022/06/17 04:15:17;;;;;;;17.13;10.40;;;;;;;;;;5092407;28;20043;-71
2022/06/17 04:18:23;;;;;;;22.70;11.63;;;;;;;;;;5092304;28;20039;-71
2022/06/17 04:21:28;;;;;;;24.50;11.32;;;;;;;;;;5091706;28;20039;-71
2022/06/17 04:24:33;;;;;;;17.60;12.23;;;;;;;;;;5092737;28;20396;-71
2022/06/17 04:28:02;;;;;;;19.60;12.80;;;;;;;;;;5092268;28;20059;-71
2022/06/17 04:31:12;;;;;;;21.75;12.80;;;;;;;;;;5092037;28;20063;-71
2022/06/17 04:34:18;;;;;;;23.58;12.82;;;;;;;;;;5091922;28;20059;-71
2022/06/17 04:37:28;;;;;;;29.65;13.07;;;;;;;;;;5091774;28;20047;-71
2022/06/17 04:40:54;;;;;;;20.83;11.48;;;;;;;;;;5079985;28;20047;-71
2022/06/17 04:44:11;;;;;;;25.38;12.43;;;;;;;;;;5091586;28;20388;-71
2022/06/17 04:47:19;;;;;;;20.00;12.30;;;;;;;;;;5091536;28;20395;-71
2022/06/17 04:50:31;;;;;;;24.73;10.13;;;;;;;;;;5079823;28;20395;-71
2022/06/17 04:53:38;;;;;;;23.65;9.38;;;;;;;;;;5091996;28;20055;-71
2022/06/17 04:57:12;;;;;;;20.52;9.50;;;;;;;;;;5090660;28;20036;-71
2022/06/17 05:00:24;;;;;;;22.73;9.05;;;;;;;;;;5091153;28;20483;-71
2022/06/17 05:03:32;;;;;;;19.98;9.15;;;;;;;;;;5091198;28;20044;-71
2022/06/17 05:06:58;;;;;;;32.35;10.50;;;;;;;;;;5091209;28;20396;-71
2022/06/17 05:10:05;;;;;;;21.98;9.88;;;;;;;;;;5090866;28;20055;-71
2022/06/17 05:13:12;;;;;;;30.20;11.30;;;;;;;;;;5090852;28;20044;-71
2022/06/17 05:16:17;;;;;;;26.50;9.65;;;;;;;;;;5091150;28;20043;-71
2022/06/17 05:19:22;;;;;;;27.08;12.13;;;;;;;;;;5090881;28;20434;-71
2022/06/17 05:22:37;;;;;;;23.73;10.85;;;;;;;;;;5090988;28;20043;-71
2022/06/17 05:25:43;;;;;;;24.58;11.23;;;;;;;;;;5079252;28;20059;-71
2022/06/17 05:28:48;;;;;;;22.23;10.15;;;;;;;;;;5090794;28;20055;-71
2022/06/17 05:31:53;;;;;;;17.95;9.85;;;;;;;;;;5090422;28;20047;-72
2022/06/17 05:35:01;;;;;;;22.48;10.55;;;;;;;;;;5090594;28;20052;-72
2022/06/17 05:38:06;;;;;;;24.88;10.32;;;;;;;;;;5090466;28;20059;-72
2022/06/17 05:41:15;;;;;;;21.48;10.55;;;;;;;;;;5090507;28;20050;-72
2022/06/17 05:44:20;;;;;;;30.30;10.90;;;;;;;;;;5090804;28;20066;-72
2022/06/17 05:47:36;;;;;;;26.42;11.85;;;;;;;;;;5091452;28;20055;-72
2022/06/17 05:51:06;;;;;;;20.52;10.85;;;;;;;;;;5090935;28;20519;-73
2022/06/17 05:54:26;;;;;;;22.23;12.30;;;;;;;;;;5091216;28;20419;-72
2022/06/17 05:57:44;;;;;;;30.15;11.57;;;;;;;;;;5090205;28;20046;-74
2022/06/17 06:00:49;;;;;;;29.85;13.90;;;;;;;;;;5089849;28;20059;-72
2022/06/17 06:03:53;;;;;;;18.38;10.95;;;;;;;;;;5078517;28;20384;-74
2022/06/17 06:06:59;;;;;;;22.23;12.48;;;;;;;;;;5090140;28;20039;-73
2022/06/17 06:10:07;;;;;;;27.45;12.10;;;;;;;;;;5089946;28;20047;-73
2022/06/17 06:13:19;;;;;;;24.23;11.45;;;;;;;;;;5090118;28;20078;-72
2022/06/17 06:16:24;;;;;;;16.63;10.80;;;;;;;;;;5089656;28;20043;-74
2022/06/17 06:19:34;;;;;;;28.50;9.87;;;;;;;;;;5091332;28;20495;-74
2022/06/17 06:22:38;;;;;;;25.52;11.00;;;;;;;;;;5090162;28;20109;-72
2022/06/17 06:25:44;;;;;;;25.50;10.02;;;;;;;;;;5090060;28;20062;-73
2022/06/17 06:28:49;;;;;;;23.30;11.05;;;;;;;;;;5094237;28;20142;-73
2022/06/17 06:31:59;;;;;;;26.95;11.13;;;;;;;;;;5093846;28;20051;-73
2022/06/17 06:35:17;;;;;;;25.33;10.30;;;;;;;;;;5094040;28;20043;-74
2022/06/17 06:38:21;;;;;;;20.08;9.43;;;;;;;;;;5094059;28;20035;-75
2022/06/17 06:41:28;;;;;;;20.00;9.85;;;;;;;;;;5094267;28;20040;-76
2022/06/17 06:44:34;;;;;;;24.55;9.30;;;;;;;;;;5093930;28;20054;-75
2022/06/17 06:47:58;;;;;;;16.15;9.75;;;;;;;;;;5094502;28;20529;-78
2022/06/17 06:51:05;;;;;;;22.85;9.25;;;;;;;;;;5093772;28;20510;-76
2022/06/17 06:54:09;;;;;;;20.25;8.80;;;;;;;;;;5094435;28;20053;-75
2022/06/17 06:57:16;;;;;;;23.73;9.75;;;;;;;;;;5093835;28;20408;-75
2022/06/17 07:00:25;;;;;;;16.23;9.25;;;;;;;;;;5093267;28;20062;-75
2022/06/17 07:03:31;;;;;;;17.38;8.13;;;;;;;;;;5093530;28;20400;-76
2022/06/17 07:06:36;;;;;;;17.00;8.50;;;;;;;;;;5093365;28;20514;-73
2022/06/17 07:09:41;;;;;;;28.85;8.90;;;;;;;;;;5094123;28;20395;-72
2022/06/17 07:12:46;;;;;;;17.83;8.20;;;;;;;;;;5093967;28;20059;-72
2022/06/17 07:15:54;;;;;;;17.38;7.20;;;;;;;;;;5094106;28;20237;-75
2022/06/17 07:18:58;;;;;;;19.60;8.00;;;;;;;;;;5093291;28;20051;-69
2022/06/17 07:22:03;;;;;;;17.02;8.50;;;;;;;;;;5094068;28;20522;-72
2022/06/17 07:25:07;;;;;;;24.85;9.77;;;;;;;;;;5093368;28;20399;-74
2022/06/17 07:28:16;;;;;;;21.40;8.82;;;;;;;;;;5093759;28;20520;-73
2022/06/17 07:31:21;;;;;;;24.33;8.88;;;;;;;;;;5093637;28;20036;-73
2022/06/17 07:34:25;;;;;;;17.40;8.13;;;;;;;;;;5093885;28;20040;-75
2022/06/17 07:41:07;;;;;;;17.80;8.60;;;;;;;;;;5092849;28;20036;-73
2022/06/17 07:44:11;;;;;;;21.15;8.43;;;;;;;;;;5093773;28;20040;-74
2022/06/17 07:47:18;;;;;;;17.83;7.35;;;;;;;;;;5093808;28;20040;-74
2022/06/17 07:50:25;;;;;;;16.55;7.32;;;;;;;;;;5092717;28;20043;-75
2022/06/17 07:53:31;;;;;;;11.50;7.07;;;;;;;;;;5080908;28;20506;-71
2022/06/17 07:56:36;;;;;;;20.17;7.65;;;;;;;;;;5093561;28;20507;-73
2022/06/17 07:59:40;;;;;;;20.35;7.18;;;;;;;;;;5080765;28;20040;-75
2022/06/17 08:02:44;;;;;;;21.00;7.05;;;;;;;;;;5080835;28;20059;-76
2022/06/17 08:05:50;;;;;;;12.82;6.85;;;;;;;;;;5093280;28;20051;-74
2022/06/17 08:08:54;;;;;;;11.40;6.15;;;;;;;;;;5093084;28;20048;-74
2022/06/17 08:11:58;;;;;;;12.73;6.30;;;;;;;;;;5092171;28;20397;-73
2022/06/17 08:15:03;;;;;;;29.38;8.10;;;;;;;;;;5092190;28;20044;-74
2022/06/17 08:18:09;;;;;;;19.83;7.43;;;;;;;;;;5093041;28;20032;-72
2022/06/17 08:21:13;;;;;;;19.27;6.63;;;;;;;;;;5092685;28;20032;-71
2022/06/17 08:24:17;;;;;;;12.30;6.00;;;;;;;;;;5091452;28;20494;-71
2022/06/17 08:27:22;;;;;;;15.85;7.13;;;;;;;;;;5092931;28;20052;-70
2022/06/17 08:30:27;;;;;;;23.35;7.85;;;;;;;;;;5092762;28;20047;-71
2022/06/17 08:33:32;;;;;;;24.42;8.50;;;;;;;;;;5091866;28;20479;-71
2022/06/17 08:36:36;;;;;;;14.95;6.78;;;;;;;;;;5091669;28;20412;-70
2022/06/17 08:39:42;;;;;;;28.60;7.40;;;;;;;;;;5092276;28;20032;-72
2022/06/17 08:43:04;;;;;;;19.10;7.78;;;;;;;;;;5092124;28;20043;-71
2022/06/17 08:46:14;;;;;;;14.57;5.90;;;;;;;;;;5092478;28;20048;-72
2022/06/17 08:49:17;;;;;;;15.00;6.60;;;;;;;;;;5092312;28;20047;-71
2022/06/17 08:52:34;;;;;;;11.05;6.13;;;;;;;;;;5092001;28;20500;-71
2022/06/17 08:55:48;;;;;;;13.25;5.90;;;;;;;;;;5092264;28;20507;-70
2022/06/17 08:58:55;;;;;;;19.58;7.53;;;;;;;;;;5092201;28;20032;-71
2022/06/17 09:02:05;;;;;;;15.35;5.90;;;;;;;;;;5091540;28;20050;-71
2022/06/17 09:05:25;;;;;;;12.93;5.57;;;;;;;;;;5092382;28;20036;-71
2022/06/17 09:08:49;;;;;;;11.93;4.80;;;;;;;;;;5092095;28;20036;-71
2022/06/17 09:11:53;;;;;;;10.65;6.05;;;;;;;;;;5079757;28;20048;-72
2022/06/17 09:15:17;;;;;;;19.40;6.20;;;;;;;;;;5091886;28;20396;-71
2022/06/17 09:18:41;;;;;;;15.77;6.40;;;;;;;;;;5091920;28;20028;-71
2022/06/17 09:21:53;;;;;;;9.43;5.45;;;;;;;;;;5091827;28;20036;-71
2022/06/17 09:25:00;;;;;;;14.60;5.70;;;;;;;;;;5091452;28;20028;-71
2022/06/17 09:28:07;;;;;;;19.58;6.45;;;;;;;;;;5091450;28;20048;-71
2022/06/17 09:31:18;;;;;;;15.85;6.05;;;;;;;;;;5091686;28;20059;-71
2022/06/17 09:34:44;;;;;;;17.00;5.80;;;;;;;;;;5091715;28;20492;-71
2022/06/17 09:37:48;;;;;;;20.90;6.75;;;;;;;;;;5091406;28;20040;-71
2022/06/17 09:40:57;;;;;;;25.40;7.35;;;;;;;;;;5091696;28;20051;-71
2022/06/17 09:44:20;;;;;;;19.73;6.63;;;;;;;;;;5091467;28;20043;-71
2022/06/17 09:47:28;;;;;;;16.73;7.07;;;;;;;;;;5091437;28;20533;-73
2022/06/17 09:50:36;;;;;;;26.60;8.68;;;;;;;;;;5090479;28;20047;-73
2022/06/17 09:53:46;;;;;;;18.98;7.35;;;;;;;;;;5090256;28;20066;-72
2022/06/17 09:57:06;;;;;;;12.30;6.20;;;;;;;;;;5091436;28;20048;-73
2022/06/17 10:00:13;;;;;;;8.43;5.40;;;;;;;;;;5090843;28;20439;-73
2022/06/17 10:03:20;;;;;;;10.93;5.30;;;;;;;;;;5091572;28;20270;-73
2022/06/17 10:06:32;;;;;;;17.88;5.80;;;;;;;;;;5091224;28;20044;-73
2022/06/17 10:09:39;;;;;;;11.10;5.13;;;;;;;;;;5090136;28;20373;-72
2022/06/17 10:12:53;;;;;;;12.95;5.10;;;;;;;;;;5090974;28;20511;-73
2022/06/17 10:19:50;;;;;;;15.93;5.43;;;;;;;;;;5091015;28;20225;-73
2022/06/17 10:23:13;;;;;;;8.10;5.05;;;;;;;;;;5091219;28;20052;-73
2022/06/17 10:26:29;;;;;;;17.30;6.20;;;;;;;;;;5091161;28;20066;-73
2022/06/17 10:29:34;;;;;;;15.10;6.18;;;;;;;;;;5090858;28;20055;-72
2022/06/17 10:32:40;;;;;;;18.70;6.32;;;;;;;;;;5090323;28;20520;-76
2022/06/17 10:35:45;;;;;;;14.82;5.85;;;;;;;;;;5077945;28;20053;-73
2022/06/17 10:38:51;;;;;;;20.80;7.43;;;;;;;;;;5090385;28;20044;-75
2022/06/17 10:41:56;;;;;;;9.05;5.13;;;;;;;;;;5090973;28;20032;-76
2022/06/17 10:45:03;;;;;;;12.40;6.00;;;;;;;;;;5090965;28;20036;-78
2022/06/17 10:48:20;;;;;;;7.65;4.90;;;;;;;;;;5089979;28;20036;-78
2022/06/17 10:51:26;;;;;;;17.15;6.00;;;;;;;;;;5090646;28;20036;-74
2022/06/17 10:54:34;;;;;;;18.42;6.75;;;;;;;;;;5090469;28;20063;-73
2022/06/17 10:57:39;;;;;;;23.65;5.90;;;;;;;;;;5089784;28;20045;-74
2022/06/17 11:01:04;;;;;;;11.45;5.40;;;;;;;;;;5090263;28;20507;-75
2022/06/17 11:04:12;;;;;;;11.25;5.53;;;;;;;;;;5090360;28;20039;-73
2022/06/17 11:07:18;;;;;;;17.75;5.65;;;;;;;;;;5090609;28;20048;-74
2022/06/17 11:10:25;;;;;;;11.60;5.22;;;;;;;;;;5089190;28;20036;-74
2022/06/17 11:13:29;;;;;;;21.67;5.85;;;;;;;;;;5091831;28;20043;-74
2022/06/17 11:16:38;;;;;;;17.98;5.85;;;;;;;;;;5093063;28;20040;-73
2022/06/17 11:19:44;;;;;;;72.30;10.33;;;;;;;;;;5094324;28;20508;-73
2022/06/17 11:22:54;;;;;;;196.10;16.33;;;;;;;;;;5093054;28;20265;-72
2022/06/17 11:26:10;;;;;;;64.05;8.27;;;;;;;;;;5093760;28;20204;-73
2022/06/17 11:29:19;;;;;;;53.20;6.80;;;;;;;;;;5092757;28;20032;-73
2022/06/17 11:32:28;;;;;;;39.50;6.65;;;;;;;;;;5094258;28;20036;-75
2022/06/17 11:35:33;;;;;;;20.23;5.32;;;;;;;;;;5093993;28;20413;-75
2022/06/17 11:38:38;;;;;;;32.67;5.63;;;;;;;;;;5081515;28;20059;-74
2022/06/17 11:41:43;;;;;;;14.10;4.80;;;;;;;;;;5069976;28;20379;-74
2022/06/17 11:44:53;;;;;;;23.80;4.07;;;;;;;;;;5092689;28;20039;-75
2022/06/17 11:47:59;;;;;;;;;;;;;;;;;;5093243;28;20049;-73
2022/06/17 11:51:12;;;;;;;26.10;4.63;;;;;;;;;;5093721;28;20405;-74
2022/06/17 11:54:22;;;;;;;21.30;4.60;;;;;;;;;;5092076;28;20048;-74
2022/06/17 11:57:30;;;;;;;12.38;4.20;;;;;;;;;;5093722;28;20040;-75
2022/06/17 12:00:46;;;;;;;18.27;4.22;;;;;;;;;;5092538;28;20044;-74
2022/06/17 12:03:50;;;;;;;14.52;4.22;;;;;;;;;;5093500;28;20036;-73
2022/06/17 12:06:56;;;;;;;22.00;4.72;;;;;;;;;;5092565;28;20040;-74
2022/06/17 12:10:19;;;;;;;32.55;5.70;;;;;;;;;;5092420;28;20053;-73
2022/06/17 12:13:23;;;;;;;11.20;3.78;;;;;;;;;;5093217;28;20060;-74
2022/06/17 12:16:38;;;;;;;11.90;3.60;;;;;;;;;;5092152;28;20503;-74
2022/06/17 12:19:42;;;;;;;21.42;4.85;;;;;;;;;;5092262;28;20047;-74
2022/06/17 12:22:50;;;;;;;13.73;3.72;;;;;;;;;;5093224;28;20072;-75
2022/06/17 12:25:59;;;;;;;11.77;2.95;;;;;;;;;;5092246;28;20075;-75
2022/06/17 12:29:11;;;;;;;25.50;4.43;;;;;;;;;;5093064;28;20047;-76
2022/06/17 12:32:25;;;;;;;27.10;4.10;;;;;;;;;;5080666;28;20110;-75
2022/06/17 12:35:45;;;;;;;11.98;2.80;;;;;;;;;;5091946;28;20052;-75
2022/06/17 12:39:08;;;;;;;11.25;3.00;;;;;;;;;;5091113;28;20032;-75
2022/06/17 12:42:15;;;;;;;7.20;2.50;;;;;;;;;;5091710;28;20051;-77
2022/06/17 12:45:47;;;;;;;9.45;2.78;;;;;;;;;;5091323;28;20039;-77
2022/06/17 12:48:58;;;;;;;23.35;3.83;;;;;;;;;;5089151;28;20036;-75
2022/06/17 12:55:57;;;;;;;52.35;7.07;;;;;;;;;;5090886;28;20053;-74
2022/06/17 12:59:16;;;;;;;19.08;3.10;;;;;;;;;;5092381;28;20483;-76
2022/06/17 13:02:40;;;;;;;6.72;2.10;;;;;;;;;;5091387;28;20524;-76
2022/06/17 13:05:46;;;;;;;19.90;2.70;;;;;;;;;;5091940;28;20083;-76
2022/06/17 13:09:06;;;;;;;36.85;3.88;;;;;;;;;;5091221;28;20032;-77
2022/06/17 13:12:23;;;;;;;44.22;3.47;;;;;;;;;;5092182;28;20048;-77
2022/06/17 13:15:29;;;;;;;9.05;2.33;;;;;;;;;;5091146;28;20403;-75
2022/06/17 13:18:42;;;;;;;14.35;3.03;;;;;;;;;;5091738;28;20033;-76
2022/06/17 13:21:49;;;;;;;13.60;2.90;;;;;;;;;;5091059;28;20369;-76
2022/06/17 13:25:06;;;;;;;30.02;3.88;;;;;;;;;;5091149;28;20036;-78
2022/06/17 13:28:30;;;;;;;31.15;3.33;;;;;;;;;;5091703;28;20046;-75
2022/06/17 13:31:41;;;;;;;72.13;5.03;;;;;;;;;;5090284;28;20051;-76
2022/06/17 13:34:52;;;;;;;23.48;3.05;;;;;;;;;;5090746;28;20047;-76
2022/06/17 13:38:04;;;;;;;46.47;5.80;;;;;;;;;;5091256;28;20032;-76
2022/06/17 13:41:16;;;;;;;23.23;3.10;;;;;;;;;;5090425;28;20521;-76
2022/06/17 13:44:35;;;;;;;15.00;3.35;;;;;;;;;;5090511;28;20043;-76
2022/06/17 13:47:39;;;;;;;86.53;6.80;;;;;;;;;;5091689;28;20037;-73
2022/06/17 13:50:53;;;;;;;8.93;2.42;;;;;;;;;;5091251;28;20504;-77
2022/06/17 13:54:26;;;;;;;8.38;2.33;;;;;;;;;;5091271;28;20396;-72
2022/06/17 13:57:36;;;;;;;107.57;9.05;;;;;;;;;;5095900;28;20044;-73
2022/06/17 14:00:46;;;;;;;20.90;4.00;;;;;;;;;;5090169;28;20059;-76
2022/06/17 14:03:50;;;;;;;20.67;3.55;;;;;;;;;;5078791;28;20065;-76
2022/06/17 14:06:56;;;;;;;23.70;3.67;;;;;;;;;;5091420;28;20075;-74
2022/06/17 14:10:21;;;;;;;62.55;5.75;;;;;;;;;;5090528;28;20047;-73
2022/06/17 14:13:25;;;;;;;35.88;4.65;;;;;;;;;;5090417;28;20416;-71
2022/06/17 14:16:31;;;;;;;9.10;2.60;;;;;;;;;;5091027;28;20032;-74
2022/06/17 14:19:55;;;;;;;13.60;3.55;;;;;;;;;;5090244;28;20044;-74
2022/06/17 14:23:00;;;;;;;16.58;3.78;;;;;;;;;;5091155;28;20039;-74
2022/06/17 14:26:04;;;;;;;25.33;3.55;;;;;;;;;;5091043;28;20043;-75
2022/06/17 14:29:09;;;;;;;25.98;3.95;;;;;;;;;;5078305;28;20036;-74
2022/06/17 14:32:19;;;;;;;34.95;4.13;;;;;;;;;;5090991;28;20491;-78
2022/06/17 14:35:26;;;;;;;22.30;3.10;;;;;;;;;;5090379;28;20055;-76
2022/06/17 14:38:36;;;;;;;13.77;3.42;;;;;;;;;;5090556;28;20036;-77
2022/06/17 14:45:08;;;;;;;37.80;5.57;;;;;;;;;;5090055;28;20036;-77
2022/06/17 14:48:13;;;;;;;14.65;4.80;;;;;;;;;;5091508;28;20036;-77
2022/06/17 14:51:17;;;;;;;15.93;3.95;;;;;;;;;;5093666;28;20396;-76
2022/06/17 14:54:27;;;;;;;26.02;4.05;;;;;;;;;;5093480;28;20055;-74
2022/06/17 14:57:42;;;;;;;11.57;3.13;;;;;;;;;;5081965;28;20043;-74
2022/06/17 15:00:52;;;;;;;35.03;5.85;;;;;;;;;;5081470;28;20048;-72
2022/06/17 15:04:07;;;;;;;30.83;4.20;;;;;;;;;;5094019;28;20032;-73
2022/06/17 15:07:15;;;;;;;18.88;3.55;;;;;;;;;;5093210;28;20048;-75
2022/06/17 15:10:25;;;;;;;15.23;3.30;;;;;;;;;;5081175;28;20032;-73
2022/06/17 15:16:55;;;;;;;50.25;5.78;;;;;;;;;;5093074;28;20036;-75
2022/06/17 15:20:02;;;;;;;68.60;6.65;;;;;;;;;;5093847;28;20044;-72
2022/06/17 15:23:25;;;;;;;20.48;3.33;;;;;;;;;;5093357;28;20036;-75
2022/06/17 15:26:33;;;;;;;54.65;5.32;;;;;;;;;;5093848;28;20047;-77
2022/06/17 15:29:37;;;;;;;52.28;4.72;;;;;;;;;;5092943;28;20420;-76
2022/06/17 15:32:43;;;;;;;47.50;4.88;;;;;;;;;;5093608;28;20126;-72
2022/06/17 15:35:53;;;;;;;19.00;3.50;;;;;;;;;;5092625;28;20452;-75
2022/06/17 15:39:08;;;;;;;13.70;3.20;;;;;;;;;;5093623;28;20036;-73
2022/06/17 15:42:18;;;;;;;10.55;3.63;;;;;;;;;;5094042;28;20036;-73
2022/06/17 15:45:22;;;;;;;17.50;5.03;;;;;;;;;;5092129;28;20056;-75
2022/06/17 15:48:29;;;;;;;15.48;5.22;;;;;;;;;;5081222;28;20039;-72
2022/06/17 15:51:41;;;;;;;10.65;4.78;;;;;;;;;;5092986;28;20032;-70
2022/06/17 15:54:47;;;;;;;17.02;5.30;;;;;;;;;;5093422;28;20101;-76
2022/06/17 15:57:51;;;;;;;17.10;6.35;;;;;;;;;;5093072;28;20045;-71
2022/06/17 16:00:57;;;;;;;17.90;6.10;;;;;;;;;;5091829;28;20516;-72
2022/06/17 16:04:03;;;;;;;16.38;6.60;;;;;;;;;;5092459;28;20055;-73
2022/06/17 16:07:28;;;;;;;58.67;8.55;;;;;;;;;;5093243;28;20036;-72
2022/06/17 16:10:38;;;;;;;21.35;8.07;;;;;;;;;;5092993;28;20044;-70
2022/06/17 16:13:56;;;;;;;20.13;8.18;;;;;;;;;;5080533;28;20507;-72
2022/06/17 16:17:05;;;;;;;17.95;7.68;;;;;;;;;;5092655;28;20040;-72
2022/06/17 16:20:18;;;;;;;12.73;5.65;;;;;;;;;;5092263;28;20378;-69
2022/06/17 16:23:28;;;;;;;11.20;4.70;;;;;;;;;;5092175;28;20051;-71
2022/06/17 16:26:38;;;;;;;14.82;5.05;;;;;;;;;;5092621;28;20041;-71
2022/06/17 16:29:45;;;;;;;14.00;5.45;;;;;;;;;;5092206;28;20047;-75
2022/06/17 16:32:55;;;;;;;9.10;4.60;;;;;;;;;;5092412;28;20055;-75
2022/06/17 16:36:02;;;;;;;16.53;6.27;;;;;;;;;;5091608;28;20112;-74
2022/06/17 16:39:24;;;;;;;9.68;5.57;;;;;;;;;;5092205;28;20274;-72
2022/06/17 16:46:03;;;;;;;16.30;4.00;;;;;;;;;;5091656;28;20047;-70
2022/06/17 16:49:07;;;;;;;23.30;9.05;;;;;;;;;;5090833;28;20040;-71
2022/06/17 16:52:24;;;;;;;10.00;3.33;;;;;;;;;;5092476;28;20040;-71
2022/06/17 16:55:30;;;;;;;10.63;4.43;;;;;;;;;;5091378;28;20396;-72
2022/06/17 16:58:35;;;;;;;10.85;4.00;;;;;;;;;;5092432;28;20047;-71
2022/06/17 17:01:39;;;;;;;13.68;4.30;;;;;;;;;;5092028;28;20143;-71
2022/06/17 17:04:44;;;;;;;8.82;3.92;;;;;;;;;;5092538;28;20039;-71
2022/06/17 17:07:49;;;;;;;8.25;4.40;;;;;;;;;;5093410;28;20052;-70
2022/06/17 17:10:53;;;;;;;11.02;4.70;;;;;;;;;;5091475;28;20036;-70
2022/06/17 17:13:58;;;;;;;7.75;4.35;;;;;;;;;;5091927;28;20051;-71
2022/06/17 17:17:03;;;;;;;8.35;5.10;;;;;;;;;;5090694;28;20036;-71
2022/06/17 17:20:08;;;;;;;12.50;5.28;;;;;;;;;;5090527;28;20044;-71
2022/06/17 17:23:12;;;;;;;16.20;6.05;;;;;;;;;;5091288;28;20421;-72
2022/06/17 17:26:16;;;;;;;9.13;5.50;;;;;;;;;;5093505;28;20511;-74
2022/06/17 17:29:20;;;;;;;8.70;5.57;;;;;;;;;;5092981;28;20043;-73
2022/06/17 17:32:25;;;;;;;12.88;6.30;;;;;;;;;;5091757;28;20044;-73
2022/06/17 17:35:29;;;;;;;8.00;5.30;;;;;;;;;;5091033;28;20040;-72
2022/06/17 17:38:34;;;;;;;12.13;6.60;;;;;;;;;;5090136;28;20040;-73
2022/06/17 17:41:40;;;;;;;12.15;6.75;;;;;;;;;;5091422;28;20102;-71
2022/06/17 17:44:45;;;;;;;10.60;6.75;;;;;;;;;;5089878;28;20490;-72
2022/06/17 17:47:49;;;;;;;12.07;6.50;;;;;;;;;;5091835;28;20048;-72
2022/06/17 17:50:56;;;;;;;15.50;8.02;;;;;;;;;;5091060;28;20059;-72
2022/06/17 17:54:00;;;;;;;12.27;7.88;;;;;;;;;;5090300;28;20061;-73
2022/06/17 17:57:05;;;;;;;10.18;7.60;;;;;;;;;;5091073;28;20032;-73
2022/06/17 18:00:10;;;;;;;18.55;8.60;;;;;;;;;;5089762;28;20048;-73
2022/06/17 18:03:16;;;;;;;12.93;8.20;;;;;;;;;;5091230;28;20040;-73
2022/06/17 18:06:22;;;;;;;14.00;8.60;;;;;;;;;;5090256;28;20036;-73
2022/06/17 18:09:27;;;;;;;17.38;9.13;;;;;;;;;;5089801;28;20042;-73
2022/06/17 18:12:34;;;;;;;20.73;10.00;;;;;;;;;;5090829;28;20388;-73
2022/06/17 18:15:39;;;;;;;17.23;10.00;;;;;;;;;;5090789;28;20059;-73
2022/06/17 18:18:43;;;;;;;17.20;9.77;;;;;;;;;;5089999;28;20421;-72
2022/06/17 18:21:48;;;;;;;17.17;9.77;;;;;;;;;;5089674;28;20036;-73
2022/06/17 18:24:52;;;;;;;13.48;10.07;;;;;;;;;;5091265;28;20036;-72
2022/06/17 18:27:57;;;;;;;14.27;9.52;;;;;;;;;;5090883;28;20047;-72
2022/06/17 18:31:02;;;;;;;15.30;9.98;;;;;;;;;;5090791;28;20036;-71
2022/06/17 18:34:06;;;;;;;14.98;10.00;;;;;;;;;;5090262;28;20404;-72
2022/06/17 18:37:12;;;;;;;14.90;9.30;;;;;;;;;;5090557;28;20043;-71
2022/06/17 18:40:18;;;;;;;12.20;8.60;;;;;;;;;;5090432;28;20044;-71
2022/06/17 18:43:22;;;;;;;12.38;8.23;;;;;;;;;;5089576;28;20496;-71
2022/06/17 18:46:28;;;;;;;12.25;7.57;;;;;;;;;;5090537;28;20040;-71
2022/06/17 18:49:32;;;;;;;11.25;7.95;;;;;;;;;;5089674;28;20043;-72
2022/06/17 18:52:37;;;;;;;11.65;7.63;;;;;;;;;;5090670;28;20472;-71